createdAt,value
2022-09-28T00:01:21.375Z,14.82
2022-09-28T00:03:50.387Z,14.82
2022-09-28T00:06:22.085Z,14.81
2022-09-28T00:08:50.676Z,14.81
2022-09-28T00:11:21.325Z,14.81
2022-09-28T00:13:56.701Z,14.79
2022-09-28T00:16:28.846Z,14.79
2022-09-28T00:18:57.583Z,14.77
2022-09-28T00:21:29.689Z,14.74
2022-09-28T00:24:35.685Z,14.73
2022-09-28T00:27:04.379Z,14.71
2022-09-28T00:29:35.158Z,14.70
2022-09-28T00:32:11.822Z,14.72
2022-09-28T00:34:46.154Z,14.72
2022-09-28T00:37:15.577Z,14.72
2022-09-28T00:39:44.194Z,14.72
2022-09-28T00:42:15.969Z,14.71
2022-09-28T00:44:58.902Z,14.72
2022-09-28T00:47:44.193Z,14.72
2022-09-28T00:50:25.057Z,14.72
2022-09-28T00:53:01.452Z,14.74
2022-09-28T00:55:40.713Z,14.75
2022-09-28T00:58:13.241Z,14.78
2022-09-28T01:00:41.576Z,14.81
2022-09-28T01:03:11.186Z,14.83
2022-09-28T01:05:40.706Z,14.85
2022-09-28T01:08:10.215Z,14.86
2022-09-28T01:10:41.001Z,14.88
2022-09-28T01:13:10.220Z,14.90
2022-09-28T01:15:57.414Z,14.93
2022-09-28T01:18:34.764Z,14.93
2022-09-28T01:21:08.773Z,14.94
2022-09-28T01:23:52.971Z,14.96
2022-09-28T01:26:54.524Z,14.99
2022-09-28T01:29:30.589Z,15.01
2022-09-28T01:32:28.164Z,15.00
2022-09-28T01:35:05.485Z,15.00
2022-09-28T01:37:47.760Z,14.99
2022-09-28T01:40:17.370Z,14.98
2022-09-28T01:42:54.430Z,14.98
2022-09-28T01:45:28.758Z,14.96
2022-09-28T01:48:01.540Z,14.92
2022-09-28T01:50:35.600Z,14.90
2022-09-28T01:53:11.634Z,14.89
2022-09-28T01:55:47.762Z,14.88
2022-09-28T01:58:36.672Z,14.87
2022-09-28T02:01:13.202Z,14.86
2022-09-28T02:03:48.929Z,14.85
2022-09-28T02:06:24.864Z,14.83
2022-09-28T02:08:59.500Z,14.81
2022-09-28T02:11:37.985Z,14.80
2022-09-28T02:14:10.729Z,14.77
2022-09-28T02:16:51.951Z,14.75
2022-09-28T02:19:28.997Z,14.73
2022-09-28T02:22:27.053Z,14.72
2022-09-28T02:25:03.810Z,14.71
2022-09-28T02:27:44.148Z,14.69
2022-09-28T02:30:13.279Z,14.70
2022-09-28T02:32:46.703Z,14.71
2022-09-28T02:35:18.504Z,14.73
2022-09-28T02:37:47.729Z,14.76
2022-09-28T02:40:19.222Z,14.78
2022-09-28T02:42:55.175Z,14.80
2022-09-28T02:45:44.832Z,14.80
2022-09-28T02:48:41.239Z,14.80
2022-09-28T02:51:48.855Z,14.80
2022-09-28T02:54:35.734Z,14.82
2022-09-28T02:57:56.658Z,14.83
2022-09-28T03:00:25.465Z,14.83
2022-09-28T03:03:21.590Z,14.83
2022-09-28T03:06:04.917Z,14.82
2022-09-28T03:08:43.377Z,14.81
2022-09-28T03:11:24.642Z,14.80
2022-09-28T03:13:55.176Z,14.79
2022-09-28T03:16:27.721Z,14.77
2022-09-28T03:18:56.011Z,14.76
2022-09-28T03:21:24.112Z,14.76
2022-09-28T03:23:52.239Z,14.75
2022-09-28T03:26:20.458Z,14.74
2022-09-28T03:28:48.506Z,14.75
2022-09-28T03:31:21.395Z,14.76
2022-09-28T03:33:51.502Z,14.76
2022-09-28T03:36:19.949Z,14.77
2022-09-28T03:38:48.197Z,14.64
2022-09-28T03:41:16.920Z,14.75
2022-09-28T03:43:45.274Z,14.72
2022-09-28T03:46:14.793Z,14.72
2022-09-28T03:48:47.551Z,14.73
2022-09-28T03:51:15.639Z,14.72
2022-09-28T03:53:43.861Z,14.71
2022-09-28T03:56:15.186Z,14.69
2022-09-28T03:58:43.435Z,14.68
2022-09-28T04:01:17.392Z,14.65
2022-09-28T04:03:47.319Z,14.64
2022-09-28T04:06:15.652Z,14.62
2022-09-28T04:08:43.774Z,14.60
2022-09-28T04:11:12.665Z,14.58
2022-09-28T04:13:41.422Z,14.56
2022-09-28T04:16:12.425Z,14.55
2022-09-28T04:18:44.039Z,14.55
2022-09-28T04:21:41.423Z,14.53
2022-09-28T04:24:14.560Z,14.52
2022-09-28T04:26:42.937Z,14.48
2022-09-28T04:29:16.300Z,14.47
2022-09-28T04:32:06.001Z,14.46
2022-09-28T04:34:40.705Z,14.47
2022-09-28T04:37:11.768Z,14.51
2022-09-28T04:39:44.034Z,14.54
2022-09-28T04:42:17.815Z,14.59
2022-09-28T04:44:46.245Z,14.64
2022-09-28T04:47:14.655Z,14.68
2022-09-28T04:50:09.508Z,14.73
2022-09-28T04:52:57.546Z,14.77
2022-09-28T04:55:25.708Z,14.81
2022-09-28T04:57:55.008Z,14.86
2022-09-28T05:00:23.194Z,14.92
2022-09-28T05:03:06.046Z,15.03
2022-09-28T05:05:57.136Z,15.09
2022-09-28T05:08:42.076Z,15.17
2022-09-28T05:11:14.424Z,15.22
2022-09-28T05:13:45.467Z,15.29
2022-09-28T05:16:16.422Z,15.34
2022-09-28T05:19:11.782Z,15.33
2022-09-28T05:21:44.601Z,15.33
2022-09-28T05:24:13.026Z,15.32
2022-09-28T05:26:41.677Z,15.31
2022-09-28T05:29:11.473Z,15.31
2022-09-28T05:31:52.798Z,15.32
2022-09-28T05:34:41.215Z,15.31
2022-09-28T05:37:13.391Z,15.30
2022-09-28T05:39:41.481Z,15.30
2022-09-28T05:42:09.658Z,15.30
2022-09-28T05:44:38.721Z,15.31
2022-09-28T05:47:07.115Z,15.33
2022-09-28T05:49:35.194Z,15.37
2022-09-28T05:52:03.712Z,15.41
2022-09-28T05:54:33.630Z,15.43
2022-09-28T05:57:02.152Z,15.46
2022-09-28T05:59:31.002Z,15.48
2022-09-28T06:01:59.125Z,15.49
2022-09-28T06:04:27.607Z,15.51
2022-09-28T06:06:56.226Z,15.51
2022-09-28T06:09:26.058Z,15.49
2022-09-28T06:12:20.387Z,15.49
2022-09-28T06:14:57.125Z,15.50
2022-09-28T06:17:25.420Z,15.47
2022-09-28T06:20:13.672Z,15.47
2022-09-28T06:23:09.106Z,15.45
2022-09-28T06:25:37.657Z,15.49
2022-09-28T06:28:09.341Z,15.53
2022-09-28T06:30:38.691Z,15.60
2022-09-28T06:33:14.147Z,15.71
2022-09-28T06:35:42.872Z,15.84
2022-09-28T06:38:11.884Z,15.95
2022-09-28T06:40:40.039Z,16.07
2022-09-28T06:43:12.004Z,16.20
2022-09-28T06:45:59.106Z,16.30
2022-09-28T06:48:39.302Z,16.39
2022-09-28T06:51:10.023Z,16.54
2022-09-28T06:53:53.932Z,16.69
2022-09-28T06:56:42.202Z,16.82
2022-09-28T06:59:11.058Z,16.96
2022-09-28T07:01:40.017Z,17.16
2022-09-28T07:04:21.060Z,17.36
2022-09-28T07:07:09.597Z,17.62
2022-09-28T07:09:55.538Z,17.85
2022-09-28T07:12:45.270Z,18.05
2022-09-28T07:15:25.206Z,18.19
2022-09-28T07:18:04.156Z,18.29
2022-09-28T07:20:46.857Z,18.29
2022-09-28T07:23:20.416Z,18.28
2022-09-28T07:26:27.061Z,18.25
2022-09-28T07:29:27.304Z,18.26
2022-09-28T07:32:14.236Z,18.24
2022-09-28T07:35:15.338Z,18.15
2022-09-28T07:38:00.480Z,18.07
2022-09-28T07:40:48.481Z,17.99
2022-09-28T07:43:21.551Z,17.90
2022-09-28T07:45:54.328Z,17.87
2022-09-28T07:48:23.303Z,17.91
2022-09-28T07:51:04.559Z,17.95
2022-09-28T07:53:40.238Z,17.98
2022-09-28T07:56:31.534Z,17.98
2022-09-28T07:59:17.778Z,17.97
2022-09-28T08:02:20.439Z,18.03
2022-09-28T08:04:49.967Z,18.10
2022-09-28T08:07:23.523Z,18.22
2022-09-28T08:09:57.844Z,18.40
2022-09-28T08:12:48.922Z,18.67
2022-09-28T08:15:37.107Z,18.95
2022-09-28T08:18:18.333Z,19.17
2022-09-28T08:21:06.372Z,19.31
2022-09-28T08:23:34.663Z,19.61
2022-09-28T08:26:02.734Z,20.19
2022-09-28T08:28:30.840Z,20.64
2022-09-28T08:31:03.330Z,20.83
2022-09-28T08:33:53.864Z,21.24
2022-09-28T08:36:40.564Z,21.59
2022-09-28T08:39:37.029Z,22.25
2022-09-28T08:42:43.352Z,23.05
2022-09-28T08:45:41.139Z,23.51
2022-09-28T08:49:06.649Z,23.77
2022-09-28T08:52:08.429Z,24.26
2022-09-28T08:55:36.986Z,24.78
2022-09-28T08:58:15.321Z,25.21
2022-09-28T09:00:49.566Z,25.59
2022-09-28T09:03:23.942Z,25.81
2022-09-28T09:06:22.198Z,26.22
2022-09-28T09:09:14.479Z,26.62
2022-09-28T09:12:23.696Z,27.10
2022-09-28T09:15:39.104Z,27.48
2022-09-28T09:18:31.390Z,27.80
2022-09-28T09:22:00.747Z,27.89
2022-09-28T09:24:51.056Z,28.22
2022-09-28T09:27:21.165Z,28.49
2022-09-28T09:29:52.799Z,28.69
2022-09-28T09:32:35.851Z,28.72
2022-09-28T09:35:31.571Z,28.76
2022-09-28T09:38:19.376Z,28.85
2022-09-28T09:41:35.152Z,29.06
2022-09-28T09:44:48.112Z,29.26
2022-09-28T09:47:59.619Z,29.42
2022-09-28T09:50:36.265Z,29.25
2022-09-28T09:53:29.597Z,29.31
2022-09-28T09:56:04.393Z,29.48
2022-09-28T09:58:46.368Z,29.57
2022-09-28T10:01:35.532Z,29.85
2022-09-28T10:04:29.983Z,30.08
2022-09-28T10:07:05.838Z,30.11
2022-09-28T10:09:46.447Z,30.06
2022-09-28T10:12:25.145Z,29.98
2022-09-28T10:14:55.469Z,30.07
2022-09-28T10:17:27.527Z,30.00
2022-09-28T10:20:38.294Z,30.00
2022-09-28T10:23:37.149Z,30.33
2022-09-28T10:26:40.130Z,30.50
2022-09-28T10:29:36.006Z,30.58
2022-09-28T10:32:22.235Z,30.59
2022-09-28T10:35:11.125Z,30.88
2022-09-28T10:37:48.595Z,31.32
2022-09-28T10:40:45.313Z,31.62
2022-09-28T10:43:26.346Z,31.86
2022-09-28T10:46:09.443Z,32.01
2022-09-28T10:49:00.148Z,32.13
2022-09-28T10:51:54.856Z,32.21
2022-09-28T10:54:31.178Z,32.30
2022-09-28T10:57:01.375Z,31.63
2022-09-28T10:59:46.895Z,31.55
2022-09-28T11:02:36.200Z,31.86
2022-09-28T11:05:24.519Z,31.80
2022-09-28T11:07:57.449Z,30.65
2022-09-28T11:10:32.929Z,29.33
2022-09-28T11:13:12.540Z,28.56
2022-09-28T11:15:44.545Z,28.02
2022-09-28T11:18:25.372Z,27.46
2022-09-28T11:21:14.412Z,27.07
2022-09-28T11:24:01.311Z,26.44
2022-09-28T11:26:45.828Z,25.91
2022-09-28T11:29:36.775Z,25.48
2022-09-28T11:32:26.418Z,25.12
2022-09-28T11:35:41.689Z,24.86
2022-09-28T11:38:34.268Z,24.54
2022-09-28T11:41:53.311Z,24.38
2022-09-28T11:44:44.880Z,24.26
2022-09-28T11:47:29.469Z,24.19
2022-09-28T11:50:08.265Z,24.12
2022-09-28T11:52:39.520Z,23.99
2022-09-28T11:55:17.516Z,23.91
2022-09-28T11:57:54.697Z,23.87
2022-09-28T12:00:24.008Z,23.77
2022-09-28T12:03:06.637Z,23.62
2022-09-28T12:05:56.515Z,23.48
2022-09-28T12:08:27.947Z,23.39
2022-09-28T12:11:42.181Z,23.36
2022-09-28T12:14:27.672Z,23.34
2022-09-28T12:17:11.898Z,23.34
2022-09-28T12:19:51.295Z,23.29
2022-09-28T12:22:54.088Z,23.32
2022-09-28T12:25:23.541Z,23.36
2022-09-28T12:27:58.791Z,23.51
2022-09-28T12:30:31.929Z,23.86
2022-09-28T12:33:13.440Z,24.06
2022-09-28T12:36:03.090Z,24.37
2022-09-28T12:38:44.424Z,25.31
2022-09-28T12:41:22.750Z,25.84
2022-09-28T12:44:09.834Z,26.46
2022-09-28T12:47:05.704Z,27.59
2022-09-28T12:50:36.971Z,28.80
2022-09-28T12:53:20.282Z,29.64
2022-09-28T12:56:03.578Z,30.23
2022-09-28T12:58:52.371Z,30.86
2022-09-28T13:01:48.598Z,31.20
2022-09-28T13:04:26.102Z,30.20
2022-09-28T13:07:09.851Z,29.04
2022-09-28T13:10:03.336Z,28.09
2022-09-28T13:12:49.678Z,27.69
2022-09-28T13:15:51.211Z,27.65
2022-09-28T13:18:30.724Z,26.97
2022-09-28T13:21:09.767Z,26.28
2022-09-28T13:23:46.645Z,25.71
2022-09-28T13:26:39.621Z,25.38
2022-09-28T13:29:14.707Z,24.96
2022-09-28T13:31:49.009Z,24.54
2022-09-28T13:34:23.774Z,24.16
2022-09-28T13:37:10.264Z,23.89
2022-09-28T13:39:52.924Z,23.68
2022-09-28T13:42:29.371Z,23.56
2022-09-28T13:45:13.925Z,23.44
2022-09-28T13:47:44.960Z,23.34
2022-09-28T13:50:39.346Z,23.24
2022-09-28T13:53:39.710Z,23.06
2022-09-28T13:56:25.651Z,22.87
2022-09-28T13:59:01.383Z,22.76
2022-09-28T14:01:37.821Z,22.68
2022-09-28T14:04:21.097Z,22.54
2022-09-28T14:07:08.739Z,22.45
2022-09-28T14:09:49.193Z,22.36
2022-09-28T14:12:31.246Z,22.35
2022-09-28T14:15:00.836Z,22.29
2022-09-28T14:17:28.901Z,22.23
2022-09-28T14:20:19.102Z,22.13
2022-09-28T14:23:24.370Z,22.04
2022-09-28T14:26:47.773Z,21.99
2022-09-28T14:29:39.431Z,22.11
2022-09-28T14:32:10.428Z,22.78
2022-09-28T14:34:43.184Z,23.27
2022-09-28T14:37:54.128Z,23.70
2022-09-28T14:40:51.585Z,24.10
2022-09-28T14:43:36.807Z,24.09
2022-09-28T14:46:25.520Z,23.89
2022-09-28T14:48:57.268Z,23.59
2022-09-28T14:51:26.325Z,23.31
2022-09-28T14:54:01.169Z,23.36
2022-09-28T14:56:34.275Z,23.80
2022-09-28T14:59:02.595Z,24.30
2022-09-28T15:01:30.983Z,24.65
2022-09-28T15:04:04.747Z,24.99
2022-09-28T15:06:48.160Z,25.15
2022-09-28T15:09:32.751Z,24.88
2022-09-28T15:12:07.829Z,24.35
2022-09-28T15:14:45.802Z,23.82
2022-09-28T15:17:28.230Z,23.27
2022-09-28T15:20:21.149Z,22.83
2022-09-28T15:22:53.088Z,22.45
2022-09-28T15:25:25.192Z,22.09
2022-09-28T15:28:04.686Z,21.75
2022-09-28T15:30:35.052Z,21.45
2022-09-28T15:33:23.582Z,21.20
2022-09-28T15:36:02.170Z,20.97
2022-09-28T15:38:33.402Z,20.78
2022-09-28T15:41:06.852Z,20.62
2022-09-28T15:43:37.248Z,20.47
2022-09-28T15:46:18.503Z,20.30
2022-09-28T15:48:52.945Z,20.11
2022-09-28T15:51:23.355Z,19.91
2022-09-28T15:54:10.446Z,19.72
2022-09-28T15:57:02.754Z,19.49
2022-09-28T15:59:37.086Z,19.22
2022-09-28T16:02:22.795Z,18.99
2022-09-28T16:04:55.641Z,18.78
2022-09-28T16:07:38.954Z,18.61
2022-09-28T16:10:13.102Z,18.46
2022-09-28T16:12:48.756Z,18.38
2022-09-28T16:15:25.112Z,18.31
2022-09-28T16:18:03.154Z,18.26
2022-09-28T16:20:35.772Z,18.17
2022-09-28T16:23:16.492Z,18.14
2022-09-28T16:25:55.686Z,18.08
2022-09-28T16:28:34.558Z,18.00
2022-09-28T16:31:28.479Z,17.90
2022-09-28T16:34:01.379Z,17.77
2022-09-28T16:36:42.836Z,17.66
2022-09-28T16:39:12.042Z,17.55
2022-09-28T16:41:44.288Z,17.42
2022-09-28T16:44:25.914Z,17.32
2022-09-28T16:46:57.143Z,17.21
2022-09-28T16:49:26.670Z,17.14
2022-09-28T16:51:54.776Z,17.05
2022-09-28T16:54:44.116Z,16.96
2022-09-28T16:57:15.334Z,16.90
2022-09-28T16:59:43.401Z,16.86
2022-09-28T17:02:44.967Z,16.79
2022-09-28T17:05:16.053Z,16.74
2022-09-28T17:07:45.059Z,16.70
2022-09-28T17:10:18.035Z,16.64
2022-09-28T17:12:46.217Z,16.59
2022-09-28T17:15:15.874Z,16.44
2022-09-28T17:17:43.948Z,16.53
2022-09-28T17:20:20.546Z,16.57
2022-09-28T17:22:50.237Z,16.62
2022-09-28T17:25:20.352Z,16.63
2022-09-28T17:27:50.110Z,16.58
2022-09-28T17:30:21.163Z,16.54
2022-09-28T17:32:51.763Z,16.49
2022-09-28T17:35:25.140Z,16.46
2022-09-28T17:37:54.323Z,16.46
2022-09-28T17:40:28.763Z,16.54
2022-09-28T17:42:57.858Z,16.60
2022-09-28T17:45:29.885Z,16.63
2022-09-28T17:47:58.930Z,16.65
2022-09-28T17:50:34.196Z,16.65
2022-09-28T17:53:06.622Z,16.65
2022-09-28T17:55:36.784Z,16.65
2022-09-28T17:58:20.440Z,16.63
2022-09-28T18:00:51.340Z,16.56
2022-09-28T18:03:25.216Z,16.54
2022-09-28T18:06:02.848Z,16.56
2022-09-28T18:08:31.420Z,16.56
2022-09-28T18:11:01.735Z,16.57
2022-09-28T18:13:30.212Z,16.56
2022-09-28T18:15:58.632Z,16.54
2022-09-28T18:18:26.914Z,16.51
2022-09-28T18:20:55.134Z,16.47
2022-09-28T18:23:23.228Z,16.45
2022-09-28T18:25:51.309Z,16.46
2022-09-28T18:28:19.450Z,16.46
2022-09-28T18:30:47.463Z,16.44
2022-09-28T18:33:15.835Z,16.40
2022-09-28T18:35:54.766Z,16.39
2022-09-28T18:38:22.824Z,16.39
2022-09-28T18:40:50.899Z,16.40
2022-09-28T18:43:19.053Z,16.43
2022-09-28T18:45:47.363Z,16.44
2022-09-28T18:48:15.528Z,16.45
2022-09-28T18:50:43.668Z,16.44
2022-09-28T18:53:12.076Z,16.43
2022-09-28T18:55:43.307Z,16.40
2022-09-28T18:58:12.152Z,16.37
2022-09-28T19:00:41.630Z,16.30
2022-09-28T19:03:11.676Z,16.23
2022-09-28T19:05:44.201Z,16.15
2022-09-28T19:08:12.266Z,16.05
2022-09-28T19:10:40.316Z,15.98
2022-09-28T19:13:08.363Z,15.96
2022-09-28T19:15:37.621Z,15.91
2022-09-28T19:18:05.771Z,15.83
2022-09-28T19:20:34.490Z,15.75
2022-09-28T19:23:02.642Z,15.67
2022-09-28T19:25:31.091Z,15.58
2022-09-28T19:27:59.126Z,15.52
2022-09-28T19:30:27.555Z,15.46
2022-09-28T19:32:55.622Z,15.39
2022-09-28T19:35:23.710Z,15.32
2022-09-28T19:37:52.301Z,15.25
2022-09-28T19:40:20.378Z,15.17
2022-09-28T19:42:48.578Z,15.11
2022-09-28T19:45:16.668Z,15.06
2022-09-28T19:47:45.236Z,15.01
2022-09-28T19:50:13.264Z,14.96
2022-09-28T19:52:41.383Z,14.92
2022-09-28T19:55:09.840Z,14.95
2022-09-28T19:57:37.955Z,14.99
2022-09-28T20:00:06.899Z,15.01
2022-09-28T20:02:36.745Z,15.02
2022-09-28T20:05:05.259Z,15.02
2022-09-28T20:07:34.934Z,15.02
2022-09-28T20:10:03.115Z,15.05
2022-09-28T20:12:31.582Z,15.07
2022-09-28T20:14:59.654Z,15.08
2022-09-28T20:17:27.860Z,15.10
2022-09-28T20:19:55.876Z,15.12
2022-09-28T20:22:23.967Z,15.10
2022-09-28T20:24:52.066Z,14.91
2022-09-28T20:27:24.251Z,14.61
2022-09-28T20:29:54.483Z,14.42
2022-09-28T20:32:22.623Z,14.31
2022-09-28T20:34:50.777Z,14.22
2022-09-28T20:37:19.517Z,14.12
2022-09-28T20:39:47.817Z,13.93
2022-09-28T20:42:16.665Z,13.81
2022-09-28T20:44:45.344Z,13.77
2022-09-28T20:47:13.421Z,13.75
2022-09-28T20:49:41.640Z,13.73
2022-09-28T20:52:09.668Z,13.68
2022-09-28T20:54:38.257Z,13.62
2022-09-28T20:57:17.706Z,13.55
2022-09-28T20:59:54.310Z,13.49
2022-09-28T21:02:23.034Z,13.46
2022-09-28T21:04:51.167Z,13.45
2022-09-28T21:07:19.393Z,13.45
2022-09-28T21:09:47.517Z,13.45
2022-09-28T21:12:15.752Z,13.44
2022-09-28T21:14:43.856Z,13.39
2022-09-28T21:17:11.977Z,13.36
2022-09-28T21:19:40.026Z,13.34
2022-09-28T21:22:08.477Z,13.31
2022-09-28T21:24:37.175Z,13.27
2022-09-28T21:27:05.482Z,13.26
2022-09-28T21:29:33.612Z,13.27
2022-09-28T21:32:01.910Z,13.30
2022-09-28T21:34:30.078Z,13.30
2022-09-28T21:36:58.109Z,13.27
2022-09-28T21:39:26.489Z,13.27
2022-09-28T21:41:54.517Z,13.27
2022-09-28T21:44:22.594Z,13.24
2022-09-28T21:46:50.673Z,13.19
2022-09-28T21:49:19.705Z,13.14
2022-09-28T21:51:47.740Z,13.11
2022-09-28T21:54:15.828Z,13.07
2022-09-28T21:56:44.020Z,13.04
2022-09-28T21:59:12.098Z,13.04
2022-09-28T22:01:42.822Z,13.02
2022-09-28T22:04:11.213Z,13.00
2022-09-28T22:06:39.845Z,12.96
2022-09-28T22:09:08.134Z,12.95
2022-09-28T22:11:37.081Z,12.94
2022-09-28T22:14:05.490Z,12.93
2022-09-28T22:16:33.566Z,12.96
2022-09-28T22:19:01.936Z,12.99
2022-09-28T22:21:35.132Z,13.03
2022-09-28T22:24:06.551Z,13.10
2022-09-28T22:26:36.629Z,13.16
2022-09-28T22:29:07.266Z,13.23
2022-09-28T22:31:39.135Z,13.30
2022-09-28T22:34:07.834Z,13.38
2022-09-28T22:36:36.169Z,13.44
2022-09-28T22:39:04.720Z,13.50
2022-09-28T22:41:32.937Z,13.59
2022-09-28T22:44:01.554Z,13.66
2022-09-28T22:46:32.255Z,13.72
2022-09-28T22:49:01.093Z,13.76
2022-09-28T22:51:30.321Z,13.79
2022-09-28T22:53:59.332Z,13.83
2022-09-28T22:56:27.497Z,13.86
2022-09-28T22:58:55.627Z,13.89
2022-09-28T23:01:27.007Z,13.91
2022-09-28T23:03:57.061Z,13.92
2022-09-28T23:06:27.938Z,13.78
2022-09-28T23:08:56.033Z,13.96
2022-09-28T23:11:24.091Z,13.99
2022-09-28T23:13:53.845Z,14.03
2022-09-28T23:16:24.936Z,14.05
2022-09-28T23:18:55.173Z,14.07
2022-09-28T23:21:25.819Z,14.10
2022-09-28T23:23:56.737Z,14.14
2022-09-28T23:26:27.466Z,14.19
2022-09-28T23:28:56.132Z,14.26
2022-09-28T23:31:29.902Z,14.31
2022-09-28T23:34:04.352Z,14.35
2022-09-28T23:36:33.733Z,14.39
2022-09-28T23:39:02.988Z,14.40
2022-09-28T23:41:31.009Z,14.42
2022-09-28T23:43:59.071Z,14.42
2022-09-28T23:46:27.241Z,14.35
2022-09-28T23:48:55.324Z,14.25
2022-09-28T23:51:24.023Z,14.13
2022-09-28T23:54:09.315Z,14.00
2022-09-28T23:56:56.706Z,13.86
2022-09-28T23:59:34.778Z,13.77
